Etusivu
METAR-TAF:

METAR-TAF

Lentoasemat :

Cuenca, Ecuador

Leveyspiiri: 02-53-22S, Pituuspiiri: 078-59-04W, korkeus merenpinnasta: 2532 m

Tämänhetkinen sää

Tämä raportti tehtiin 50 minuuttia sitten, kello 23.00 UTC
Tuuli 8 kn idästä/koillisesta
Lämpötila 19°C
Kosteus 56%
Ilmanpaine 1023 hPa
Näkyvyys 10 km tai enemmän
Hajanaisia pilviä 4000 ft:n korkeudessa
Hajonneita pilviä 8000 ft:n korkeudessa

METAR: SECU 162300Z 06008KT 9999 SCT040 BKN080 19/10 Q1023

Aika: 18:50 (23:50 UTC)


TAF: puuttuu

Säähavainnot ja -ennusteet yli 4000 lentoasemalta (METAR- ja TAF-raportit).

Käytössä olevat sääasemat on merkitty karttaan keltaisilla ja punaisilla pisteillä.

Aseta hiiri pisteen päälle nähdäksesi sääaseman nimen.

Klikkaa sitten nähdäksesi säähavainnot ja -ennusteet.

Kartan vaihtaminen: klikkaa mustalla rastilla varustettuja vihreitä pisteitä, niin voit zoomata sisään; viivalla varustettua vihreää pistettä, niin voit zoomata ulos tai vihreitä nuolia, niin pääset viereisille kartoille.


METAR-TAF: